createdAt,value
2022-08-10T00:00:32.169Z,3.83
2022-08-10T00:03:00.816Z,3.58
2022-08-10T00:05:28.400Z,4.18
2022-08-10T00:08:10.762Z,4.25
2022-08-10T00:10:45.028Z,3.60
2022-08-10T00:13:11.787Z,4.20
2022-08-10T00:15:53.198Z,3.72
2022-08-10T00:18:35.297Z,3.67
2022-08-10T00:21:07.167Z,3.92
2022-08-10T00:23:35.284Z,3.90
2022-08-10T00:26:02.635Z,4.07
2022-08-10T00:28:29.463Z,4.05
2022-08-10T00:30:56.399Z,3.40
2022-08-10T00:33:23.280Z,4.15
2022-08-10T00:35:50.415Z,3.63
2022-08-10T00:38:17.187Z,4.65
2022-08-10T00:40:43.969Z,3.50
2022-08-10T00:43:10.695Z,4.10
2022-08-10T00:45:37.570Z,3.53
2022-08-10T00:48:04.457Z,3.88
2022-08-10T00:50:31.314Z,3.78
2022-08-10T00:52:58.180Z,4.13
2022-08-10T00:55:25.849Z,3.78
2022-08-10T00:57:55.463Z,4.20
2022-08-10T01:00:23.934Z,4.55
2022-08-10T01:02:51.162Z,4.90
2022-08-10T01:05:20.298Z,4.65
2022-08-10T01:07:59.263Z,4.60
2022-08-10T01:10:32.382Z,4.18
2022-08-10T01:13:17.333Z,4.75
2022-08-10T01:16:29.381Z,3.90
2022-08-10T01:19:28.053Z,4.28
2022-08-10T01:22:34.894Z,4.10
2022-08-10T01:25:01.744Z,3.85
2022-08-10T01:27:52.162Z,3.53
2022-08-10T01:30:20.811Z,3.88
2022-08-10T01:33:10.742Z,4.00
2022-08-10T01:35:37.453Z,3.90
2022-08-10T01:38:18.737Z,3.85
2022-08-10T01:40:51.736Z,4.05
2022-08-10T01:43:20.041Z,4.18
2022-08-10T01:45:52.601Z,4.80
2022-08-10T01:48:33.645Z,4.40
2022-08-10T01:51:07.710Z,5.00
2022-08-10T01:53:42.926Z,4.07
2022-08-10T01:56:13.088Z,4.32
2022-08-10T01:58:40.886Z,4.22
2022-08-10T02:01:11.189Z,3.38
2022-08-10T02:04:03.747Z,3.80
2022-08-10T02:06:37.055Z,4.07
2022-08-10T02:09:07.134Z,3.17
2022-08-10T02:12:05.431Z,3.13
2022-08-10T02:14:33.093Z,3.60
2022-08-10T02:17:04.887Z,3.75
2022-08-10T02:19:35.269Z,3.47
2022-08-10T02:22:36.499Z,3.90
2022-08-10T02:24:51.960Z,3.85
2022-08-10T02:27:20.736Z,3.88
2022-08-10T02:29:49.137Z,3.90
2022-08-10T02:32:23.767Z,3.92
2022-08-10T02:35:07.281Z,4.18
2022-08-10T02:37:36.117Z,4.10
2022-08-10T02:40:03.190Z,4.32
2022-08-10T02:45:23.152Z,3.80
2022-08-10T02:45:34.002Z,4.20
2022-08-10T02:48:07.369Z,3.95
2022-08-10T02:50:36.426Z,4.40
2022-08-10T02:53:54.694Z,4.63
2022-08-10T02:56:08.164Z,4.35
2022-08-10T02:58:48.249Z,4.35
2022-08-10T03:01:21.317Z,4.28
2022-08-10T03:03:52.370Z,4.75
2022-08-10T03:06:23.563Z,4.57
2022-08-10T03:08:51.968Z,4.60
2022-08-10T03:12:35.315Z,4.70
2022-08-10T03:14:11.625Z,4.13
2022-08-10T03:16:40.784Z,4.38
2022-08-10T03:20:35.233Z,4.63
2022-08-10T03:21:56.762Z,4.63
2022-08-10T03:24:32.987Z,4.20
2022-08-10T03:27:01.421Z,4.72
2022-08-10T03:29:28.747Z,4.90
2022-08-10T03:31:56.599Z,4.22
2022-08-10T03:34:33.015Z,4.70
2022-08-10T03:37:00.913Z,4.18
2022-08-10T03:39:28.565Z,4.05
2022-08-10T03:42:00.002Z,3.75
2022-08-10T03:44:31.872Z,4.13
2022-08-10T03:47:03.381Z,3.75
2022-08-10T03:49:43.346Z,3.88
2022-08-10T03:52:10.503Z,3.63
2022-08-10T03:54:38.123Z,3.85
2022-08-10T03:57:05.344Z,3.58
2022-08-10T03:59:32.672Z,3.83
2022-08-10T04:02:44.010Z,3.28
2022-08-10T04:04:48.070Z,3.58
2022-08-10T04:07:15.360Z,3.95
2022-08-10T04:09:54.168Z,3.80
2022-08-10T04:12:23.427Z,4.35
2022-08-10T04:14:52.773Z,3.30
2022-08-10T04:17:56.847Z,3.55
2022-08-10T04:20:34.906Z,3.45
2022-08-10T04:23:06.458Z,3.50
2022-08-10T04:25:33.932Z,3.15
2022-08-10T04:28:01.170Z,3.30
2022-08-10T04:30:31.545Z,3.10
2022-08-10T04:33:00.483Z,3.35
2022-08-10T04:35:29.175Z,3.83
2022-08-10T04:37:58.226Z,3.53
2022-08-10T04:40:29.488Z,3.50
2022-08-10T04:43:10.452Z,3.53
2022-08-10T04:45:50.525Z,3.55
2022-08-10T04:48:40.901Z,3.53
2022-08-10T04:51:11.132Z,3.15
2022-08-10T04:54:02.729Z,3.50
2022-08-10T04:56:32.254Z,3.17
2022-08-10T04:59:00.367Z,3.58
2022-08-10T05:01:27.529Z,3.10
2022-08-10T05:04:34.746Z,3.20
2022-08-10T05:07:00.838Z,3.35
2022-08-10T05:09:28.013Z,3.35
2022-08-10T05:11:54.734Z,3.20
2022-08-10T05:14:21.463Z,3.08
2022-08-10T05:16:48.166Z,3.53
2022-08-10T05:19:14.868Z,2.85
2022-08-10T05:21:59.778Z,3.30
2022-08-10T05:24:28.362Z,2.97
2022-08-10T05:27:09.587Z,3.05
2022-08-10T05:29:37.459Z,3.03
2022-08-10T05:32:04.659Z,3.30
2022-08-10T05:34:31.492Z,3.13
2022-08-10T05:36:58.468Z,3.20
2022-08-10T05:39:32.174Z,3.00
2022-08-10T05:42:01.064Z,3.78
2022-08-10T05:44:28.698Z,3.38
2022-08-10T05:46:55.466Z,2.83
2022-08-10T05:49:22.157Z,3.10
2022-08-10T05:51:49.335Z,2.97
2022-08-10T05:54:16.289Z,3.53
2022-08-10T05:56:55.978Z,3.10
2022-08-10T06:00:10.714Z,4.15
2022-08-10T06:02:43.882Z,3.17
2022-08-10T06:05:24.731Z,2.92
2022-08-10T06:08:05.829Z,2.70
2022-08-10T06:10:35.465Z,2.95
2022-08-10T06:13:29.930Z,2.50
2022-08-10T06:16:05.379Z,2.97
2022-08-10T06:18:32.923Z,2.35
2022-08-10T06:21:00.799Z,2.55
2022-08-10T06:23:30.384Z,2.80
2022-08-10T06:26:11.252Z,2.72
2022-08-10T06:29:02.455Z,2.75
2022-08-10T06:31:48.690Z,2.70
2022-08-10T06:36:48.984Z,2.58
2022-08-10T06:39:32.833Z,2.80
2022-08-10T06:42:20.684Z,2.30
2022-08-10T06:45:09.849Z,2.28
2022-08-10T06:47:39.219Z,2.30
2022-08-10T06:50:55.848Z,2.28
2022-08-10T06:53:53.097Z,2.47
2022-08-10T06:56:37.490Z,2.30
2022-08-10T06:59:21.987Z,2.10
2022-08-10T07:02:02.791Z,2.33
2022-08-10T07:04:46.467Z,2.10
2022-08-10T07:07:18.616Z,1.90
2022-08-10T07:09:45.870Z,2.40
2022-08-10T07:12:14.823Z,2.35
2022-08-10T07:14:44.875Z,2.40
2022-08-10T07:17:17.216Z,2.40
2022-08-10T07:19:50.375Z,2.20
2022-08-10T07:23:01.474Z,2.30
2022-08-10T07:25:07.368Z,1.90
2022-08-10T07:27:59.130Z,2.58
2022-08-10T07:30:22.122Z,2.90
2022-08-10T07:32:51.293Z,2.28
2022-08-10T07:35:19.844Z,2.38
2022-08-10T07:37:49.341Z,2.33
2022-08-10T07:40:19.773Z,2.42
2022-08-10T07:42:52.193Z,2.20
2022-08-10T07:45:19.682Z,2.75
2022-08-10T07:47:54.491Z,2.45
2022-08-10T07:50:24.525Z,2.53
2022-08-10T07:52:53.541Z,2.17
2022-08-10T07:56:05.457Z,2.80
2022-08-10T07:58:10.329Z,2.20
2022-08-10T08:00:39.112Z,2.50
2022-08-10T08:03:09.278Z,3.13
2022-08-10T08:05:57.576Z,2.28
2022-08-10T08:08:24.878Z,2.65
2022-08-10T08:10:58.486Z,2.70
2022-08-10T08:13:26.198Z,2.28
2022-08-10T08:16:19.449Z,2.95
2022-08-10T08:18:58.248Z,2.38
2022-08-10T08:24:06.552Z,2.40
2022-08-10T08:24:30.741Z,2.63
2022-08-10T08:27:02.534Z,2.20
2022-08-10T08:29:31.636Z,2.35
2022-08-10T08:32:02.330Z,2.38
2022-08-10T08:34:36.279Z,3.30
2022-08-10T08:37:04.057Z,2.30
2022-08-10T08:39:36.830Z,2.20
2022-08-10T08:42:28.166Z,2.20
2022-08-10T08:45:06.896Z,2.13
2022-08-10T08:48:05.638Z,2.22
2022-08-10T08:50:36.419Z,2.28
2022-08-10T08:54:03.126Z,2.25
2022-08-10T08:56:29.680Z,2.10
2022-08-10T08:59:08.705Z,2.50
2022-08-10T09:01:58.698Z,2.35
2022-08-10T09:04:46.981Z,2.30
2022-08-10T09:08:05.526Z,2.58
2022-08-10T09:10:39.882Z,2.60
2022-08-10T09:13:26.873Z,2.60
2022-08-10T09:16:05.983Z,2.88
2022-08-10T09:19:06.417Z,2.17
2022-08-10T09:22:17.214Z,2.25
2022-08-10T09:25:06.865Z,2.53
2022-08-10T09:27:40.636Z,2.40
2022-08-10T09:30:16.295Z,2.40
2022-08-10T09:36:14.683Z,2.40
2022-08-10T09:36:33.224Z,2.55
2022-08-10T09:40:06.965Z,2.78
2022-08-10T09:42:31.283Z,3.70
2022-08-10T09:45:16.867Z,2.20
2022-08-10T09:51:28.477Z,7.78
2022-08-10T09:53:56.155Z,3.55
2022-08-10T09:56:32.316Z,2.33
2022-08-10T09:59:45.864Z,2.65
2022-08-10T10:02:13.304Z,2.38
2022-08-10T10:05:00.127Z,2.25
2022-08-10T10:07:27.920Z,2.22
2022-08-10T10:10:16.505Z,2.17
2022-08-10T10:12:54.971Z,2.30
2022-08-10T10:15:39.644Z,2.40
2022-08-10T10:18:18.404Z,2.30
2022-08-10T10:21:55.799Z,2.33
2022-08-10T10:24:25.060Z,2.92
2022-08-10T10:27:06.317Z,2.38
2022-08-10T10:29:56.748Z,2.53
2022-08-10T10:32:38.659Z,2.20
2022-08-10T10:35:32.593Z,2.50
2022-08-10T10:38:03.578Z,2.20
2022-08-10T10:41:01.468Z,2.00
2022-08-10T10:43:56.878Z,2.00
2022-08-10T10:46:45.226Z,2.05
2022-08-10T10:49:15.509Z,2.38
2022-08-10T10:51:52.803Z,2.38
2022-08-10T10:54:27.978Z,2.30
2022-08-10T10:57:15.925Z,1.98
2022-08-10T11:00:02.188Z,1.75
2022-08-10T11:02:41.089Z,1.73
2022-08-10T11:05:29.108Z,2.17
2022-08-10T11:08:27.617Z,2.20
2022-08-10T11:11:05.394Z,3.15
2022-08-10T11:14:26.222Z,2.42
2022-08-10T11:16:57.302Z,2.10
2022-08-10T11:20:02.675Z,2.40
2022-08-10T11:22:51.290Z,2.00
2022-08-10T11:25:30.082Z,1.85
2022-08-10T11:28:16.339Z,2.03
2022-08-10T11:30:54.997Z,2.30
2022-08-10T11:34:48.563Z,2.92
2022-08-10T11:36:58.696Z,1.98
2022-08-10T11:39:49.608Z,2.70
2022-08-10T11:42:36.184Z,1.80
2022-08-10T11:45:16.272Z,2.25
2022-08-10T11:48:12.143Z,3.63
2022-08-10T11:51:01.400Z,2.20
2022-08-10T11:53:45.709Z,2.10
2022-08-10T11:56:24.040Z,1.85
2022-08-10T11:59:17.161Z,1.90
2022-08-10T12:01:46.942Z,1.88
2022-08-10T12:04:14.841Z,2.10
2022-08-10T12:06:59.060Z,2.08
2022-08-10T12:10:06.205Z,1.90
2022-08-10T12:12:16.602Z,1.90
2022-08-10T12:14:59.792Z,1.67
2022-08-10T12:17:35.789Z,1.95
2022-08-10T12:20:24.741Z,1.73
2022-08-10T12:22:57.551Z,1.80
2022-08-10T12:25:56.616Z,1.80
2022-08-10T12:28:51.327Z,1.83
2022-08-10T12:31:25.016Z,1.90
2022-08-10T12:34:05.423Z,1.60
2022-08-10T12:36:41.422Z,1.95
2022-08-10T12:39:25.133Z,1.80
2022-08-10T12:42:10.286Z,1.73
2022-08-10T12:47:22.063Z,1.80
2022-08-10T12:50:29.685Z,1.70
2022-08-10T12:53:37.870Z,1.55
2022-08-10T12:56:06.858Z,1.63
2022-08-10T12:58:57.305Z,1.73
2022-08-10T13:02:06.427Z,1.80
2022-08-10T13:04:23.544Z,1.70
2022-08-10T13:06:52.883Z,1.70
2022-08-10T13:09:24.413Z,2.20
2022-08-10T13:12:44.678Z,2.42
2022-08-10T13:14:59.810Z,2.35
2022-08-10T13:17:38.789Z,1.90
2022-08-10T13:20:15.057Z,2.00
2022-08-10T13:22:43.004Z,1.90
2022-08-10T13:25:11.339Z,1.90
2022-08-10T13:28:00.736Z,1.95
2022-08-10T13:30:37.367Z,2.03
2022-08-10T13:33:06.221Z,1.60
2022-08-10T13:35:34.851Z,1.50
2022-08-10T13:38:03.351Z,1.85
2022-08-10T13:40:32.669Z,2.15
2022-08-10T13:43:01.839Z,1.70
2022-08-10T13:45:29.413Z,1.70
2022-08-10T13:48:20.655Z,1.67
2022-08-10T13:50:50.238Z,1.80
2022-08-10T13:53:18.369Z,1.85
2022-08-10T13:55:54.909Z,2.20
2022-08-10T13:58:42.144Z,1.63
2022-08-10T14:01:15.313Z,2.30
2022-08-10T14:03:45.735Z,2.15
2022-08-10T14:06:15.281Z,1.63
2022-08-10T14:08:50.261Z,1.67
2022-08-10T14:11:19.706Z,1.77
2022-08-10T14:13:56.301Z,1.83
2022-08-10T14:16:24.380Z,1.85
2022-08-10T14:18:54.243Z,1.58
2022-08-10T14:21:21.830Z,1.63
2022-08-10T14:23:52.600Z,1.52
2022-08-10T14:26:31.171Z,2.10
2022-08-10T14:29:07.906Z,1.60
2022-08-10T14:31:37.543Z,1.50
2022-08-10T14:34:10.268Z,1.77
2022-08-10T14:36:42.521Z,2.00
2022-08-10T14:39:13.820Z,1.70
2022-08-10T14:42:01.330Z,1.73
2022-08-10T14:44:31.186Z,3.58
2022-08-10T14:47:51.381Z,3.17
2022-08-10T14:49:57.235Z,1.83
2022-08-10T14:52:27.249Z,1.75
2022-08-10T14:54:56.533Z,1.80
2022-08-10T14:58:16.825Z,1.60
2022-08-10T15:00:29.322Z,2.05
2022-08-10T15:03:02.056Z,2.00
2022-08-10T15:05:39.598Z,1.60
2022-08-10T15:08:11.429Z,1.80
2022-08-10T15:10:38.809Z,1.88
2022-08-10T15:13:34.374Z,1.88
2022-08-10T15:16:12.455Z,1.75
2022-08-10T15:18:58.051Z,1.52
2022-08-10T15:21:42.544Z,1.80
2022-08-10T15:26:51.390Z,1.70
2022-08-10T15:29:26.064Z,1.95
2022-08-10T15:32:12.322Z,1.92
2022-08-10T15:34:58.313Z,2.25
2022-08-10T15:37:40.336Z,2.00
2022-08-10T15:40:23.841Z,2.08
2022-08-10T15:43:05.655Z,2.00
2022-08-10T15:45:58.942Z,1.98
2022-08-10T15:48:29.025Z,1.92
2022-08-10T15:51:05.724Z,2.08
2022-08-10T15:53:50.663Z,1.80
2022-08-10T15:56:32.705Z,2.10
2022-08-10T15:59:12.744Z,1.60
2022-08-10T16:02:14.855Z,2.20
2022-08-10T16:05:11.266Z,2.45
2022-08-10T16:07:49.058Z,2.10
2022-08-10T16:10:28.125Z,2.05
2022-08-10T16:13:01.326Z,1.80
2022-08-10T16:15:30.235Z,2.05
2022-08-10T16:18:14.256Z,2.25
2022-08-10T16:20:53.536Z,1.80
2022-08-10T16:23:36.440Z,2.22
2022-08-10T16:26:15.016Z,2.20
2022-08-10T16:28:51.935Z,2.28
2022-08-10T16:31:22.427Z,2.00
2022-08-10T16:33:57.102Z,1.77
2022-08-10T16:36:52.548Z,2.05
2022-08-10T16:39:57.781Z,1.83
2022-08-10T16:42:19.676Z,2.00
2022-08-10T16:45:08.867Z,1.90
2022-08-10T16:47:38.971Z,2.40
2022-08-10T16:50:09.277Z,1.60
2022-08-10T16:52:37.519Z,1.90
2022-08-10T16:55:24.030Z,2.50
2022-08-10T16:57:57.913Z,2.13
2022-08-10T17:00:26.420Z,2.30
2022-08-10T17:02:58.089Z,2.17
2022-08-10T17:06:01.654Z,2.05
2022-08-10T17:08:17.343Z,2.00
2022-08-10T17:10:44.032Z,2.33
2022-08-10T17:13:14.032Z,2.20
2022-08-10T17:15:48.903Z,2.10
2022-08-10T17:18:27.578Z,1.80
2022-08-10T17:20:59.827Z,2.10
2022-08-10T17:23:32.777Z,2.30
2022-08-10T17:26:06.841Z,1.92
2022-08-10T17:28:41.643Z,2.08
2022-08-10T17:31:35.382Z,2.00
2022-08-10T17:34:16.711Z,2.40
2022-08-10T17:36:47.637Z,2.25
2022-08-10T17:39:16.737Z,2.08
2022-08-10T17:41:49.439Z,2.00
2022-08-10T17:44:17.478Z,2.10
2022-08-10T17:46:46.026Z,2.25
2022-08-10T17:49:16.113Z,2.10
2022-08-10T17:51:50.201Z,1.98
2022-08-10T17:54:24.214Z,3.60
2022-08-10T17:56:52.246Z,3.50
2022-08-10T17:59:23.608Z,2.53
2022-08-10T18:02:01.362Z,2.30
2022-08-10T18:04:41.366Z,2.30
2022-08-10T18:07:10.576Z,1.98
2022-08-10T18:09:44.598Z,2.70
2022-08-10T18:12:18.678Z,1.95
2022-08-10T18:14:50.044Z,2.00
2022-08-10T18:17:22.953Z,2.20
2022-08-10T18:19:58.069Z,2.38
2022-08-10T18:24:53.918Z,2.00
2022-08-10T18:27:21.887Z,2.10
2022-08-10T18:29:55.124Z,1.85
2022-08-10T18:32:24.885Z,2.03
2022-08-10T18:34:58.328Z,2.10
2022-08-10T18:37:26.955Z,1.88
2022-08-10T18:39:58.896Z,2.13
2022-08-10T18:42:43.860Z,2.08
2022-08-10T18:45:14.495Z,2.00
2022-08-10T18:47:59.567Z,2.20
2022-08-10T18:53:19.806Z,2.25
2022-08-10T18:56:08.631Z,2.03
2022-08-10T18:58:51.288Z,1.60
2022-08-10T19:01:42.632Z,2.38
2022-08-10T19:04:12.034Z,1.80
2022-08-10T19:07:03.558Z,2.03
2022-08-10T19:09:46.109Z,1.90
2022-08-10T19:12:53.157Z,2.25
2022-08-10T19:15:29.615Z,2.10
2022-08-10T19:18:42.146Z,1.90
2022-08-10T19:21:18.750Z,2.40
2022-08-10T19:24:17.771Z,2.10
2022-08-10T19:27:07.962Z,2.35
2022-08-10T19:30:07.929Z,2.08
2022-08-10T19:32:57.127Z,2.25
2022-08-10T19:36:04.635Z,2.00
2022-08-10T19:39:09.301Z,2.10
2022-08-10T19:41:54.234Z,2.30
2022-08-10T19:44:26.726Z,2.25
2022-08-10T19:47:05.425Z,2.28
2022-08-10T19:49:46.820Z,2.58
2022-08-10T19:52:23.172Z,2.42
2022-08-10T19:55:07.225Z,2.42
2022-08-10T19:57:53.947Z,2.30
2022-08-10T20:00:26.980Z,2.30
2022-08-10T20:03:15.842Z,2.60
2022-08-10T20:06:13.233Z,2.25
2022-08-10T20:09:10.654Z,2.05
2022-08-10T20:12:02.361Z,2.10
2022-08-10T20:14:53.414Z,2.00
2022-08-10T20:17:51.470Z,2.17
2022-08-10T20:20:30.481Z,2.13
2022-08-10T20:23:07.036Z,2.65
2022-08-10T20:25:34.276Z,2.38
2022-08-10T20:28:17.221Z,2.20
2022-08-10T20:31:02.484Z,3.03
2022-08-10T20:33:39.624Z,2.22
2022-08-10T20:36:29.388Z,2.10
2022-08-10T20:39:30.719Z,2.50
2022-08-10T20:42:06.719Z,2.65
2022-08-10T20:45:01.745Z,2.35
2022-08-10T20:47:54.284Z,2.45
2022-08-10T20:50:30.846Z,2.38
2022-08-10T20:53:03.056Z,2.72
2022-08-10T20:55:58.924Z,2.53
2022-08-10T20:58:43.161Z,2.45
2022-08-10T21:02:05.610Z,2.67
2022-08-10T21:04:43.410Z,2.30
2022-08-10T21:07:44.053Z,2.25
2022-08-10T21:10:16.422Z,2.63
2022-08-10T21:13:08.804Z,2.10
2022-08-10T21:16:03.831Z,3.33
2022-08-10T21:19:01.768Z,2.25
2022-08-10T21:21:41.665Z,2.60
2022-08-10T21:24:16.733Z,2.65
2022-08-10T21:26:56.132Z,2.08
2022-08-10T21:29:39.781Z,2.30
2022-08-10T21:32:17.800Z,2.83
2022-08-10T21:35:11.061Z,2.53
2022-08-10T21:38:23.853Z,2.53
2022-08-10T21:41:18.348Z,2.47
2022-08-10T21:44:32.671Z,2.28
2022-08-10T21:48:07.363Z,2.22
2022-08-10T21:50:48.064Z,2.55
2022-08-10T21:53:52.976Z,2.13
2022-08-10T21:57:07.095Z,2.30
2022-08-10T22:00:05.305Z,2.22
2022-08-10T22:02:57.492Z,2.25
2022-08-10T22:05:46.716Z,2.08
2022-08-10T22:08:38.130Z,2.75
2022-08-10T22:11:29.134Z,2.20
2022-08-10T22:14:15.538Z,2.10
2022-08-10T22:18:03.440Z,2.15
2022-08-10T22:20:27.925Z,2.15
2022-08-10T22:23:19.022Z,2.08
2022-08-10T22:26:04.622Z,1.88
2022-08-10T22:28:51.496Z,2.10
2022-08-10T22:32:02.093Z,1.95
2022-08-10T22:35:05.795Z,2.13
2022-08-10T22:38:12.041Z,2.40
2022-08-10T22:41:03.509Z,2.38
2022-08-10T22:43:51.960Z,2.45
2022-08-10T22:46:46.924Z,2.30
2022-08-10T22:49:20.962Z,2.88
2022-08-10T22:51:50.208Z,2.00
2022-08-10T22:54:43.192Z,2.05
2022-08-10T22:57:34.153Z,2.20
2022-08-10T23:00:16.706Z,2.35
2022-08-10T23:03:22.678Z,2.00
2022-08-10T23:05:57.411Z,2.20
2022-08-10T23:08:45.166Z,2.35
2022-08-10T23:11:26.456Z,2.22
2022-08-10T23:14:00.894Z,2.15
2022-08-10T23:16:49.716Z,2.57
2022-08-10T23:19:42.741Z,2.30
2022-08-10T23:22:12.583Z,2.65
2022-08-10T23:24:52.820Z,2.38
2022-08-10T23:27:38.387Z,2.25
2022-08-10T23:30:16.918Z,2.08
2022-08-10T23:32:59.556Z,2.20
2022-08-10T23:36:05.647Z,2.83
2022-08-10T23:38:22.376Z,2.25
2022-08-10T23:40:53.292Z,2.15
2022-08-10T23:43:46.608Z,2.38
2022-08-10T23:46:16.306Z,2.70
2022-08-10T23:48:46.963Z,2.63
2022-08-10T23:51:17.271Z,2.53
2022-08-10T23:53:46.533Z,2.85
2022-08-10T23:56:19.932Z,2.60
2022-08-10T23:58:53.777Z,2.33
